sensor_id;sensor_type;location;lat;lon;timestamp;pressure;altitude;pressure_sealevel;temperature;humidity
69980;BME280;57318;56.232;43.944;2023-11-19T00:02:13;99987.44;;;-9.02;80.97
69980;BME280;57318;56.232;43.944;2023-11-19T00:04:39;99971.97;;;-9.09;81.08
69980;BME280;57318;56.232;43.944;2023-11-19T00:07:05;99981.41;;;-9.09;81.08
69980;BME280;57318;56.232;43.944;2023-11-19T00:09:33;99985.69;;;-9.10;81.22
69980;BME280;57318;56.232;43.944;2023-11-19T00:12:00;99986.53;;;-9.12;81.15
69980;BME280;57318;56.232;43.944;2023-11-19T00:14:26;99989.94;;;-9.13;81.23
69980;BME280;57318;56.232;43.944;2023-11-19T00:16:52;99992.53;;;-9.15;81.51
69980;BME280;57318;56.232;43.944;2023-11-19T00:19:19;99994.22;;;-9.17;81.36
69980;BME280;57318;56.232;43.944;2023-11-19T00:21:44;99991.59;;;-9.20;81.25
69980;BME280;57318;56.232;43.944;2023-11-19T00:24:11;99997.59;;;-9.24;81.32
69980;BME280;57318;56.232;43.944;2023-11-19T00:26:38;99997.56;;;-9.27;81.40
69980;BME280;57318;56.232;43.944;2023-11-19T00:29:04;99987.25;;;-9.30;81.79
69980;BME280;57318;56.232;43.944;2023-11-19T00:31:31;99978.63;;;-9.32;81.55
69980;BME280;57318;56.232;43.944;2023-11-19T00:33:57;99978.63;;;-9.32;81.78
69980;BME280;57318;56.232;43.944;2023-11-19T00:36:22;99978.59;;;-9.35;81.83
69980;BME280;57318;56.232;43.944;2023-11-19T00:38:49;99978.56;;;-9.37;81.60
69980;BME280;57318;56.232;43.944;2023-11-19T00:41:15;99973.44;;;-9.37;81.93
69980;BME280;57318;56.232;43.944;2023-11-19T00:43:44;99965.69;;;-9.38;82.19
69980;BME280;57318;56.232;43.944;2023-11-19T00:46:10;99972.56;;;-9.39;82.19
69980;BME280;57318;56.232;43.944;2023-11-19T00:48:39;99963.13;;;-9.38;82.30
69980;BME280;57318;56.232;43.944;2023-11-19T00:51:05;99957.97;;;-9.38;82.59
69980;BME280;57318;56.232;43.944;2023-11-19T00:53:31;99951.97;;;-9.39;82.62
69980;BME280;57318;56.232;43.944;2023-11-19T00:56:00;99952.81;;;-9.38;82.63
69980;BME280;57318;56.232;43.944;2023-11-19T00:58:26;99959.69;;;-9.40;82.45
69980;BME280;57318;56.232;43.944;2023-11-19T01:00:52;99959.69;;;-9.40;82.60
69980;BME280;57318;56.232;43.944;2023-11-19T01:03:18;99963.09;;;-9.41;82.63
69980;BME280;57318;56.232;43.944;2023-11-19T01:05:44;99956.25;;;-9.43;82.60
69980;BME280;57318;56.232;43.944;2023-11-19T01:08:12;99950.22;;;-9.45;82.70
69980;BME280;57318;56.232;43.944;2023-11-19T01:10:38;99947.66;;;-9.43;82.49
69980;BME280;57318;56.232;43.944;2023-11-19T01:13:03;99952.81;;;-9.45;82.51
69980;BME280;57318;56.232;43.944;2023-11-19T01:15:32;99953.66;;;-9.44;82.66
69980;BME280;57318;56.232;43.944;2023-11-19T01:17:58;99957.06;;;-9.44;83.22
69980;BME280;57318;56.232;43.944;2023-11-19T01:20:24;99953.66;;;-9.43;82.96
69980;BME280;57318;56.232;43.944;2023-11-19T01:22:50;99954.53;;;-9.40;82.99
69980;BME280;57318;56.232;43.944;2023-11-19T01:25:16;99950.22;;;-9.41;82.93
69980;BME280;57318;56.232;43.944;2023-11-19T01:27:42;99951.97;;;-9.39;83.05
69980;BME280;57318;56.232;43.944;2023-11-19T01:30:08;99953.72;;;-9.36;83.63
69980;BME280;57318;56.232;43.944;2023-11-19T01:32:39;99950.28;;;-9.35;83.38
69980;BME280;57318;56.232;43.944;2023-11-19T01:35:05;99945.19;;;-9.29;83.92
69980;BME280;57318;56.232;43.944;2023-11-19T01:37:31;99934.91;;;-9.26;84.00
69980;BME280;57318;56.232;43.944;2023-11-19T01:39:57;99934.09;;;-9.23;84.01
69980;BME280;57318;56.232;43.944;2023-11-19T01:42:23;99934.13;;;-9.20;84.10
69980;BME280;57318;56.232;43.944;2023-11-19T01:45:00;99931.53;;;-9.20;84.38
69980;BME280;57318;56.232;43.944;2023-11-19T01:47:28;99942.69;;;-9.20;84.57
69980;BME280;57318;56.232;43.944;2023-11-19T01:49:56;99939.31;;;-9.16;84.39
69980;BME280;57318;56.232;43.944;2023-11-19T01:52:22;99935.91;;;-9.15;84.64
69980;BME280;57318;56.232;43.944;2023-11-19T01:54:49;99938.47;;;-9.15;84.46
69980;BME280;57318;56.232;43.944;2023-11-19T01:57:15;99938.47;;;-9.16;84.32
69980;BME280;57318;56.232;43.944;2023-11-19T01:59:43;99935.88;;;-9.16;84.63
69980;BME280;57318;56.232;43.944;2023-11-19T02:02:09;99941.03;;;-9.15;84.80
69980;BME280;57318;56.232;43.944;2023-11-19T02:04:35;99939.31;;;-9.16;84.64
69980;BME280;57318;56.232;43.944;2023-11-19T02:07:01;99941.88;;;-9.17;84.87
69980;BME280;57318;56.232;43.944;2023-11-19T02:09:27;99949.59;;;-9.16;84.76
69980;BME280;57318;56.232;43.944;2023-11-19T02:11:53;99941.00;;;-9.19;84.70
69980;BME280;57318;56.232;43.944;2023-11-19T02:14:19;99946.13;;;-9.21;84.67
69980;BME280;57318;56.232;43.944;2023-11-19T02:16:47;99945.22;;;-9.26;84.87
69980;BME280;57318;56.232;43.944;2023-11-19T02:19:13;99940.91;;;-9.30;84.51
69980;BME280;57318;56.232;43.944;2023-11-19T02:21:58;99943.47;;;-9.30;85.05
69980;BME280;57318;56.232;43.944;2023-11-19T02:24:28;99939.19;;;-9.30;84.96
69980;BME280;57318;56.232;43.944;2023-11-19T02:27:02;99935.75;;;-9.30;85.02
69980;BME280;57318;56.232;43.944;2023-11-19T02:29:31;99934.88;;;-9.31;85.20
69980;BME280;57318;56.232;43.944;2023-11-19T02:31:57;99940.03;;;-9.31;85.05
69980;BME280;57318;56.232;43.944;2023-11-19T02:34:23;99940.88;;;-9.33;85.22
69980;BME280;57318;56.232;43.944;2023-11-19T02:36:48;99940.88;;;-9.33;85.12
69980;BME280;57318;56.232;43.944;2023-11-19T02:39:15;99941.75;;;-9.33;85.20
69980;BME280;57318;56.232;43.944;2023-11-19T02:41:46;99942.56;;;-9.34;85.02
69980;BME280;57318;56.232;43.944;2023-11-19T02:44:12;99940.88;;;-9.33;85.13
69980;BME280;57318;56.232;43.944;2023-11-19T02:46:39;99952.06;;;-9.30;85.22
69980;BME280;57318;56.232;43.944;2023-11-19T02:49:07;99946.06;;;-9.30;85.16
69980;BME280;57318;56.232;43.944;2023-11-19T02:51:33;99934.03;;;-9.31;85.19
69980;BME280;57318;56.232;43.944;2023-11-19T02:54:00;99934.88;;;-9.32;85.31
69980;BME280;57318;56.232;43.944;2023-11-19T02:56:26;99930.56;;;-9.36;84.75
69980;BME280;57318;56.232;43.944;2023-11-19T02:58:52;99935.75;;;-9.33;85.06
69980;BME280;57318;56.232;43.944;2023-11-19T03:01:25;99936.56;;;-9.34;85.19
69980;BME280;57318;56.232;43.944;2023-11-19T03:03:57;99935.69;;;-9.38;84.97
69980;BME280;57318;56.232;43.944;2023-11-19T03:06:23;99935.69;;;-9.39;84.87
69980;BME280;57318;56.232;43.944;2023-11-19T03:08:49;99932.22;;;-9.45;84.56
69980;BME280;57318;56.232;43.944;2023-11-19T03:11:15;99929.59;;;-9.49;84.36
69980;BME280;57318;56.232;43.944;2023-11-19T03:13:41;99926.09;;;-9.54;84.15
69980;BME280;57318;56.232;43.944;2023-11-19T03:16:07;99932.09;;;-9.58;84.18
69980;BME280;57318;56.232;43.944;2023-11-19T03:18:33;99923.44;;;-9.65;83.98
69980;BME280;57318;56.232;43.944;2023-11-19T03:20:58;99925.13;;;-9.67;84.18
69980;BME280;57318;56.232;43.944;2023-11-19T03:23:24;99919.09;;;-9.71;83.89
69980;BME280;57318;56.232;43.944;2023-11-19T03:25:53;99913.94;;;-9.74;83.75
69980;BME280;57318;56.232;43.944;2023-11-19T03:28:19;99919.03;;;-9.77;83.67
69980;BME280;57318;56.232;43.944;2023-11-19T03:30:45;99925.88;;;-9.81;83.63
69980;BME280;57318;56.232;43.944;2023-11-19T03:33:11;99923.25;;;-9.84;83.53
69980;BME280;57318;56.232;43.944;2023-11-19T03:35:36;99922.38;;;-9.86;83.55
69980;BME280;57318;56.232;43.944;2023-11-19T03:38:02;99932.63;;;-9.89;83.30
69980;BME280;57318;56.232;43.944;2023-11-19T03:40:28;99929.19;;;-9.89;83.51
69980;BME280;57318;56.232;43.944;2023-11-19T03:42:56;99927.44;;;-9.92;83.46
69980;BME280;57318;56.232;43.944;2023-11-19T03:45:22;99929.16;;;-9.92;83.42
69980;BME280;57318;56.232;43.944;2023-11-19T03:47:48;99933.44;;;-9.93;83.47
69980;BME280;57318;56.232;43.944;2023-11-19T03:50:15;99931.72;;;-9.94;83.36
69980;BME280;57318;56.232;43.944;2023-11-19T03:52:41;99926.56;;;-9.94;83.22
69980;BME280;57318;56.232;43.944;2023-11-19T03:55:07;99927.41;;;-9.95;83.10
69980;BME280;57318;56.232;43.944;2023-11-19T03:57:34;99929.97;;;-9.95;83.44
69980;BME280;57318;56.232;43.944;2023-11-19T04:00:00;99933.44;;;-9.94;83.40
69980;BME280;57318;56.232;43.944;2023-11-19T04:02:32;99935.16;;;-9.90;83.28
69980;BME280;57318;56.232;43.944;2023-11-19T04:04:57;99937.81;;;-9.84;83.75
69980;BME280;57318;56.232;43.944;2023-11-19T04:07:23;99940.53;;;-9.70;84.29
69980;BME280;57318;56.232;43.944;2023-11-19T04:09:49;99934.69;;;-9.55;84.39
69980;BME280;57318;56.232;43.944;2023-11-19T04:12:14;99938.22;;;-9.43;84.45
69980;BME280;57318;56.232;43.944;2023-11-19T04:14:40;99940.91;;;-9.30;84.15
69980;BME280;57318;56.232;43.944;2023-11-19T04:17:06;99935.00;;;-9.18;83.82
69980;BME280;57318;56.232;43.944;2023-11-19T04:19:31;99939.34;;;-9.11;83.56
69980;BME280;57318;56.232;43.944;2023-11-19T04:21:58;99940.28;;;-8.98;83.21
69980;BME280;57318;56.232;43.944;2023-11-19T04:24:24;99942.91;;;-8.92;82.59
69980;BME280;57318;56.232;43.944;2023-11-19T04:26:50;99948.13;;;-8.83;82.28
69980;BME280;57318;56.232;43.944;2023-11-19T04:29:16;99938.66;;;-8.85;81.59
69980;BME280;57318;56.232;43.944;2023-11-19T04:31:43;99941.25;;;-8.82;81.22
69980;BME280;57318;56.232;43.944;2023-11-19T04:34:10;99937.88;;;-8.77;80.96
69980;BME280;57318;56.232;43.944;2023-11-19T04:36:37;99942.16;;;-8.74;80.50
69980;BME280;57318;56.232;43.944;2023-11-19T04:39:03;99944.72;;;-8.76;80.63
69980;BME280;57318;56.232;43.944;2023-11-19T04:41:48;99955.91;;;-8.74;80.32
69980;BME280;57318;56.232;43.944;2023-11-19T04:44:16;99949.06;;;-8.70;80.27
69980;BME280;57318;56.232;43.944;2023-11-19T04:46:42;99944.75;;;-8.73;79.93
69980;BME280;57318;56.232;43.944;2023-11-19T04:49:10;99946.47;;;-8.75;79.88
69980;BME280;57318;56.232;43.944;2023-11-19T04:51:45;99951.66;;;-8.68;79.89
69980;BME280;57318;56.232;43.944;2023-11-19T04:54:12;99951.69;;;-8.64;79.53
69980;BME280;57318;56.232;43.944;2023-11-19T04:56:38;99951.63;;;-8.73;79.38
69980;BME280;57318;56.232;43.944;2023-11-19T04:59:04;99952.47;;;-8.73;79.46
69980;BME280;57318;56.232;43.944;2023-11-19T05:01:31;99953.38;;;-8.67;79.29
69980;BME280;57318;56.232;43.944;2023-11-19T05:03:57;99958.56;;;-8.64;79.26
69980;BME280;57318;56.232;43.944;2023-11-19T05:06:27;99959.41;;;-8.67;78.90
69980;BME280;57318;56.232;43.944;2023-11-19T05:08:53;99967.94;;;-8.73;79.12
69980;BME280;57318;56.232;43.944;2023-11-19T05:11:19;99962.84;;;-8.63;78.99
69980;BME280;57318;56.232;43.944;2023-11-19T05:13:45;99972.34;;;-8.56;78.70
69980;BME280;57318;56.232;43.944;2023-11-19T05:16:11;99968.91;;;-8.52;78.31
69980;BME280;57318;56.232;43.944;2023-11-19T05:18:40;99976.66;;;-8.50;78.07
69980;BME280;57318;56.232;43.944;2023-11-19T05:21:06;99979.19;;;-8.58;77.28
69980;BME280;57318;56.232;43.944;2023-11-19T05:23:32;99979.19;;;-8.61;77.46
69980;BME280;57318;56.232;43.944;2023-11-19T05:26:01;99982.63;;;-8.59;77.42
69980;BME280;57318;56.232;43.944;2023-11-19T05:28:26;99978.28;;;-8.65;77.33
69980;BME280;57318;56.232;43.944;2023-11-19T05:30:52;99990.38;;;-8.58;77.33
69980;BME280;57318;56.232;43.944;2023-11-19T05:33:18;99989.50;;;-8.55;77.00
69980;BME280;57318;56.232;43.944;2023-11-19T05:35:43;99986.97;;;-8.50;76.81
69980;BME280;57318;56.232;43.944;2023-11-19T05:38:09;99978.44;;;-8.43;76.66
69980;BME280;57318;56.232;43.944;2023-11-19T05:40:35;99989.59;;;-8.34;76.55
69980;BME280;57318;56.232;43.944;2023-11-19T05:43:01;99986.19;;;-8.32;76.02
69980;BME280;57318;56.232;43.944;2023-11-19T05:45:27;99991.34;;;-8.32;75.51
69980;BME280;57318;56.232;43.944;2023-11-19T05:47:53;99980.19;;;-8.27;75.46
69980;BME280;57318;56.232;43.944;2023-11-19T05:50:19;99989.66;;;-8.24;75.02
69980;BME280;57318;56.232;43.944;2023-11-19T05:52:44;99993.13;;;-8.16;74.93
69980;BME280;57318;56.232;43.944;2023-11-19T05:55:10;99991.44;;;-8.12;74.66
69980;BME280;57318;56.232;43.944;2023-11-19T05:57:39;99990.56;;;-8.13;74.64
69980;BME280;57318;56.232;43.944;2023-11-19T06:00:06;99991.47;;;-8.08;74.37
69980;BME280;57318;56.232;43.944;2023-11-19T06:02:34;99990.59;;;-8.10;73.89
69980;BME280;57318;56.232;43.944;2023-11-19T06:05:00;99986.31;;;-7.99;73.92
69980;BME280;57318;56.232;43.944;2023-11-19T06:07:27;99988.03;;;-8.04;73.38
69980;BME280;57318;56.232;43.944;2023-11-19T06:09:53;99997.47;;;-8.09;72.65
69980;BME280;57318;56.232;43.944;2023-11-19T06:12:18;99979.44;;;-8.07;72.27
69980;BME280;57318;56.232;43.944;2023-11-19T06:14:44;99979.44;;;-8.06;72.19
69980;BME280;57318;56.232;43.944;2023-11-19T06:17:10;99978.56;;;-8.12;72.08
69980;BME280;57318;56.232;43.944;2023-11-19T06:19:37;99977.75;;;-7.96;72.37
69980;BME280;57318;56.232;43.944;2023-11-19T06:22:05;99989.81;;;-7.90;71.68
69980;BME280;57318;56.232;43.944;2023-11-19T06:24:32;99981.22;;;-7.86;71.30
69980;BME280;57318;56.232;43.944;2023-11-19T06:26:57;99982.94;;;-7.88;70.91
69980;BME280;57318;56.232;43.944;2023-11-19T06:29:23;99972.63;;;-7.88;71.21
69980;BME280;57318;56.232;43.944;2023-11-19T06:31:50;99971.78;;;-7.87;71.47
69980;BME280;57318;56.232;43.944;2023-11-19T06:34:15;99979.53;;;-7.81;71.69
69980;BME280;57318;56.232;43.944;2023-11-19T06:36:41;99987.28;;;-7.76;71.32
69980;BME280;57318;56.232;43.944;2023-11-19T06:39:09;99974.38;;;-7.70;71.55
69980;BME280;57318;56.232;43.944;2023-11-19T06:41:36;99976.13;;;-7.65;70.87
69980;BME280;57318;56.232;43.944;2023-11-19T06:44:05;99980.44;;;-7.65;70.62
69980;BME280;57318;56.232;43.944;2023-11-19T06:46:31;99972.75;;;-7.51;70.27
69980;BME280;57318;56.232;43.944;2023-11-19T06:48:57;99971.88;;;-7.46;69.76
69980;BME280;57318;56.232;43.944;2023-11-19T06:51:23;99969.28;;;-7.50;69.78
69980;BME280;57318;56.232;43.944;2023-11-19T06:53:50;99984.75;;;-7.56;69.26
69980;BME280;57318;56.232;43.944;2023-11-19T06:56:23;99980.47;;;-7.56;69.40
69980;BME280;57318;56.232;43.944;2023-11-19T06:58:50;99989.03;;;-7.66;68.67
69980;BME280;57318;56.232;43.944;2023-11-19T07:01:16;99986.47;;;-7.58;68.74
69980;BME280;57318;56.232;43.944;2023-11-19T07:03:46;99989.88;;;-7.63;68.38
69980;BME280;57318;56.232;43.944;2023-11-19T07:06:12;99989.03;;;-7.66;68.81
69980;BME280;57318;56.232;43.944;2023-11-19T07:08:41;99992.47;;;-7.63;68.73
69980;BME280;57318;56.232;43.944;2023-11-19T07:11:07;99998.53;;;-7.54;68.77
69980;BME280;57318;56.232;43.944;2023-11-19T07:13:35;99991.66;;;-7.45;68.45
69980;BME280;57318;56.232;43.944;2023-11-19T07:16:01;100001.16;;;-7.31;68.10
69980;BME280;57318;56.232;43.944;2023-11-19T07:18:27;100002.88;;;-7.29;67.76
69980;BME280;57318;56.232;43.944;2023-11-19T07:20:52;100008.06;;;-7.24;67.49
69980;BME280;57318;56.232;43.944;2023-11-19T07:23:19;100006.34;;;-7.10;67.37
69980;BME280;57318;56.232;43.944;2023-11-19T07:25:44;100002.03;;;-6.97;67.62
69980;BME280;57318;56.232;43.944;2023-11-19T07:28:13;100008.06;;;-6.87;66.42
69980;BME280;57318;56.232;43.944;2023-11-19T07:30:39;100014.97;;;-6.78;66.61
69980;BME280;57318;56.232;43.944;2023-11-19T07:33:05;100006.38;;;-6.73;66.20
69980;BME280;57318;56.232;43.944;2023-11-19T07:35:32;100001.19;;;-6.73;66.27
69980;BME280;57318;56.232;43.944;2023-11-19T07:37:57;99995.13;;;-6.58;66.56
69980;BME280;57318;56.232;43.944;2023-11-19T07:40:24;99994.28;;;-6.50;66.16
69980;BME280;57318;56.232;43.944;2023-11-19T07:42:49;99995.09;;;-6.33;65.39
69980;BME280;57318;56.232;43.944;2023-11-19T07:45:16;99989.91;;;-6.21;65.30
69980;BME280;57318;56.232;43.944;2023-11-19T07:47:42;99999.31;;;-6.07;65.23
69980;BME280;57318;56.232;43.944;2023-11-19T07:50:10;99981.97;;;-5.88;64.30
69980;BME280;57318;56.232;43.944;2023-11-19T07:52:37;99995.78;;;-5.89;63.91
69980;BME280;57318;56.232;43.944;2023-11-19T07:55:03;99983.66;;;-5.81;63.76
69980;BME280;57318;56.232;43.944;2023-11-19T07:57:29;99984.50;;;-5.77;63.74
69980;BME280;57318;56.232;43.944;2023-11-19T07:59:57;99985.31;;;-5.71;63.65
69980;BME280;57318;56.232;43.944;2023-11-19T08:02:22;99969.72;;;-5.54;63.68
69980;BME280;57318;56.232;43.944;2023-11-19T08:04:49;99970.50;;;-5.43;63.61
69980;BME280;57318;56.232;43.944;2023-11-19T08:07:18;99951.47;;;-5.37;63.16
69980;BME280;57318;56.232;43.944;2023-11-19T08:09:45;99945.38;;;-5.27;63.35
69980;BME280;57318;56.232;43.944;2023-11-19T08:12:10;99941.88;;;-5.22;62.34
69980;BME280;57318;56.232;43.944;2023-11-19T08:14:36;99946.63;;;-4.72;62.09
69980;BME280;57318;56.232;43.944;2023-11-19T08:17:05;99943.94;;;-4.62;60.34
69980;BME280;57318;56.232;43.944;2023-11-19T08:19:30;99942.19;;;-4.60;59.50
69980;BME280;57318;56.232;43.944;2023-11-19T08:21:56;99939.13;;;-4.17;58.99
69980;BME280;57318;56.232;43.944;2023-11-19T08:24:22;99938.41;;;-3.04;57.84
69980;BME280;57318;56.232;43.944;2023-11-19T08:26:48;99939.56;;;-2.72;54.97
69980;BME280;57318;56.232;43.944;2023-11-19T08:29:14;99940.94;;;-2.49;53.96
69980;BME280;57318;56.232;43.944;2023-11-19T08:31:40;99936.47;;;-1.99;54.16
69980;BME280;57318;56.232;43.944;2023-11-19T08:34:06;99932.47;;;-1.36;50.82
69980;BME280;57318;56.232;43.944;2023-11-19T08:36:34;99932.91;;;-1.17;50.19
69980;BME280;57318;56.232;43.944;2023-11-19T08:39:00;99930.88;;;-1.05;49.28
69980;BME280;57318;56.232;43.944;2023-11-19T08:41:26;99930.06;;;-1.07;48.42
69980;BME280;57318;56.232;43.944;2023-11-19T08:43:52;99937.38;;;-0.20;48.49
69980;BME280;57318;56.232;43.944;2023-11-19T08:46:18;99939.31;;;0.33;46.94
69980;BME280;57318;56.232;43.944;2023-11-19T08:48:44;99945.84;;;-0.12;45.69
69980;BME280;57318;56.232;43.944;2023-11-19T08:51:10;99943.81;;;-0.02;46.92
69980;BME280;57318;56.232;43.944;2023-11-19T08:53:35;99947.06;;;-0.25;47.20
69980;BME280;57318;56.232;43.944;2023-11-19T08:56:01;99939.50;;;-0.67;46.87
69980;BME280;57318;56.232;43.944;2023-11-19T08:58:28;99940.53;;;-0.09;47.12
69980;BME280;57318;56.232;43.944;2023-11-19T09:00:54;99939.53;;;0.27;45.82
69980;BME280;57318;56.232;43.944;2023-11-19T09:03:20;99938.22;;;0.12;45.41
69980;BME280;57318;56.232;43.944;2023-11-19T09:05:46;99938.38;;;0.06;44.78
69980;BME280;57318;56.232;43.944;2023-11-19T09:08:11;99942.34;;;-0.11;44.31
69980;BME280;57318;56.232;43.944;2023-11-19T09:10:37;99939.66;;;-0.74;45.69
69980;BME280;57318;56.232;43.944;2023-11-19T09:13:03;99930.88;;;-1.41;47.12
69980;BME280;57318;56.232;43.944;2023-11-19T09:15:29;99930.06;;;-1.84;48.22
69980;BME280;57318;56.232;43.944;2023-11-19T09:17:55;99932.56;;;-2.22;49.02
69980;BME280;57318;56.232;43.944;2023-11-19T09:20:21;99924.75;;;-2.65;49.65
69980;BME280;57318;56.232;43.944;2023-11-19T09:22:47;99918.69;;;-3.17;50.81
69980;BME280;57318;56.232;43.944;2023-11-19T09:25:13;99916.25;;;-3.27;51.52
69980;BME280;57318;56.232;43.944;2023-11-19T09:27:44;99906.84;;;-3.35;52.17
69980;BME280;57318;56.232;43.944;2023-11-19T09:30:09;99909.84;;;-3.61;53.21
69980;BME280;57318;56.232;43.944;2023-11-19T09:32:35;99912.31;;;-3.54;53.28
69980;BME280;57318;56.232;43.944;2023-11-19T09:35:03;99916.25;;;-3.27;52.83
69980;BME280;57318;56.232;43.944;2023-11-19T09:37:29;99906.78;;;-3.32;53.26
69980;BME280;57318;56.232;43.944;2023-11-19T09:39:55;99913.13;;;-3.49;53.73
69980;BME280;57318;56.232;43.944;2023-11-19T09:42:20;99917.50;;;-3.54;54.03
69980;BME280;57318;56.232;43.944;2023-11-19T09:44:47;99925.22;;;-3.49;53.85
69980;BME280;57318;56.232;43.944;2023-11-19T09:47:14;99914.88;;;-3.52;53.76
69980;BME280;57318;56.232;43.944;2023-11-19T09:49:39;99914.75;;;-3.43;53.91
69980;BME280;57318;56.232;43.944;2023-11-19T09:52:05;99904.44;;;-3.49;53.44
69980;BME280;57318;56.232;43.944;2023-11-19T09:54:31;99904.59;;;-3.60;53.28
69980;BME280;57318;56.232;43.944;2023-11-19T09:56:58;99907.13;;;-3.55;53.17
69980;BME280;57318;56.232;43.944;2023-11-19T09:59:29;99903.94;;;-3.73;53.72
69980;BME280;57318;56.232;43.944;2023-11-19T10:01:56;99908.53;;;-3.93;55.15
69980;BME280;57318;56.232;43.944;2023-11-19T10:04:22;99903.38;;;-3.96;55.07
69980;BME280;57318;56.232;43.944;2023-11-19T10:06:52;99905.91;;;-3.90;55.06
69980;BME280;57318;56.232;43.944;2023-11-19T10:09:18;99913.88;;;-4.04;54.83
69980;BME280;57318;56.232;43.944;2023-11-19T10:11:44;99920.06;;;-4.13;55.11
69980;BME280;57318;56.232;43.944;2023-11-19T10:14:10;99930.66;;;-4.35;55.56
69980;BME280;57318;56.232;43.944;2023-11-19T10:16:35;99921.34;;;-4.51;56.10
69980;BME280;57318;56.232;43.944;2023-11-19T10:19:01;99923.16;;;-4.61;56.35
69980;BME280;57318;56.232;43.944;2023-11-19T10:21:27;99925.09;;;-4.80;57.46
69980;BME280;57318;56.232;43.944;2023-11-19T10:23:55;99923.47;;;-4.88;57.81
69980;BME280;57318;56.232;43.944;2023-11-19T10:26:22;99921.69;;;-4.85;57.60
69980;BME280;57318;56.232;43.944;2023-11-19T10:28:48;99916.44;;;-4.79;57.65
69980;BME280;57318;56.232;43.944;2023-11-19T10:31:15;99919.00;;;-4.76;57.77
69980;BME280;57318;56.232;43.944;2023-11-19T10:33:41;99920.91;;;-4.93;58.35
69980;BME280;57318;56.232;43.944;2023-11-19T10:36:07;99911.38;;;-4.91;58.80
69980;BME280;57318;56.232;43.944;2023-11-19T10:38:33;99904.38;;;-4.84;58.70
69980;BME280;57318;56.232;43.944;2023-11-19T10:40:59;99906.13;;;-4.85;58.82
69980;BME280;57318;56.232;43.944;2023-11-19T10:43:25;99909.63;;;-4.89;59.17
69980;BME280;57318;56.232;43.944;2023-11-19T10:45:51;99909.63;;;-4.91;59.23
69980;BME280;57318;56.232;43.944;2023-11-19T10:48:18;99907.19;;;-5.03;59.75
69980;BME280;57318;56.232;43.944;2023-11-19T10:50:45;99909.78;;;-5.04;59.87
69980;BME280;57318;56.232;43.944;2023-11-19T10:53:13;99910.56;;;-4.96;60.12
69980;BME280;57318;56.232;43.944;2023-11-19T10:55:39;99908.88;;;-5.03;60.13
69980;BME280;57318;56.232;43.944;2023-11-19T10:58:07;99911.56;;;-5.13;60.38
69980;BME280;57318;56.232;43.944;2023-11-19T11:00:44;99915.81;;;-5.05;60.11
69980;BME280;57318;56.232;43.944;2023-11-19T11:03:17;99922.81;;;-5.12;60.46
69980;BME280;57318;56.232;43.944;2023-11-19T11:05:47;99923.72;;;-5.19;60.61
69980;BME280;57318;56.232;43.944;2023-11-19T11:08:14;99925.41;;;-5.15;60.43
69980;BME280;57318;56.232;43.944;2023-11-19T11:10:43;99917.72;;;-5.24;61.03
69980;BME280;57318;56.232;43.944;2023-11-19T11:13:10;99924.53;;;-5.16;60.86
69980;BME280;57318;56.232;43.944;2023-11-19T11:15:37;99922.00;;;-5.22;60.65
69980;BME280;57318;56.232;43.944;2023-11-19T11:18:07;99911.72;;;-5.31;60.77
69980;BME280;57318;56.232;43.944;2023-11-19T11:20:34;99912.66;;;-5.41;61.15
69980;BME280;57318;56.232;43.944;2023-11-19T11:28:46;99904.13;;;-5.53;60.87
69980;BME280;57318;56.232;43.944;2023-11-19T11:39:49;99913.66;;;-5.58;61.16
69980;BME280;57318;56.232;43.944;2023-11-19T11:42:30;99917.91;;;-5.54;61.22
69980;BME280;57318;56.232;43.944;2023-11-19T11:45:10;99915.34;;;-5.54;61.02
69980;BME280;57318;56.232;43.944;2023-11-19T11:50:18;99913.78;;;-5.80;60.95
69980;BME280;57318;56.232;43.944;2023-11-19T11:55:33;99919.84;;;-5.85;61.37
69980;BME280;57318;56.232;43.944;2023-11-19T11:58:00;99923.31;;;-5.83;61.68
69980;BME280;57318;56.232;43.944;2023-11-19T12:02:55;99931.13;;;-5.94;61.59
69980;BME280;57318;56.232;43.944;2023-11-19T12:05:21;99928.53;;;-5.95;61.38
69980;BME280;57318;56.232;43.944;2023-11-19T12:07:59;99931.13;;;-5.94;61.87
69980;BME280;57318;56.232;43.944;2023-11-19T12:10:29;99932.00;;;-5.96;61.86
69980;BME280;57318;56.232;43.944;2023-11-19T12:13:01;99925.94;;;-5.94;62.12
69980;BME280;57318;56.232;43.944;2023-11-19T12:15:30;99926.00;;;-6.03;62.46
69980;BME280;57318;56.232;43.944;2023-11-19T12:17:56;99931.16;;;-5.99;62.36
69980;BME280;57318;56.232;43.944;2023-11-19T12:20:23;99935.47;;;-6.04;62.16
69980;BME280;57318;56.232;43.944;2023-11-19T12:22:50;99934.63;;;-6.01;62.10
69980;BME280;57318;56.232;43.944;2023-11-19T12:25:16;99935.47;;;-6.02;62.01
69980;BME280;57318;56.232;43.944;2023-11-19T12:27:44;99939.81;;;-6.03;62.09
69980;BME280;57318;56.232;43.944;2023-11-19T12:30:11;99941.59;;;-6.19;62.78
69980;BME280;57318;56.232;43.944;2023-11-19T12:32:45;99943.31;;;-6.11;62.36
69980;BME280;57318;56.232;43.944;2023-11-19T12:35:11;99934.69;;;-6.23;63.13
69980;BME280;57318;56.232;43.944;2023-11-19T12:37:44;99933.00;;;-6.21;63.18
69980;BME280;57318;56.232;43.944;2023-11-19T12:40:15;99933.00;;;-6.24;63.44
69980;BME280;57318;56.232;43.944;2023-11-19T12:42:41;99926.09;;;-6.25;63.43
69980;BME280;57318;56.232;43.944;2023-11-19T12:45:07;99928.69;;;-6.31;63.61
69980;BME280;57318;56.232;43.944;2023-11-19T12:47:37;99924.38;;;-6.26;63.19
69980;BME280;57318;56.232;43.944;2023-11-19T12:50:03;99920.97;;;-6.36;63.34
69980;BME280;57318;56.232;43.944;2023-11-19T12:52:30;99923.56;;;-6.42;63.86
69980;BME280;57318;56.232;43.944;2023-11-19T12:54:56;99914.09;;;-6.44;63.84
69980;BME280;57318;56.232;43.944;2023-11-19T12:57:40;99904.63;;;-6.47;63.63
69980;BME280;57318;56.232;43.944;2023-11-19T13:00:07;99906.38;;;-6.54;63.97
69980;BME280;57318;56.232;43.944;2023-11-19T13:02:46;99903.78;;;-6.54;64.11
69980;BME280;57318;56.232;43.944;2023-11-19T13:05:32;99907.22;;;-6.51;64.17
69980;BME280;57318;56.232;43.944;2023-11-19T13:08:03;99898.59;;;-6.47;64.13
69980;BME280;57318;56.232;43.944;2023-11-19T13:10:32;99894.28;;;-6.48;63.97
69980;BME280;57318;56.232;43.944;2023-11-19T13:13:04;99896.88;;;-6.55;64.17